Overview Statistics Trail Chart Weather Telemetry Raw packets
 

This is the latest recevied weather packets stored in our database for station/object DB7GV-8. If no packets are shown the sender has not sent any weather packets the latest 10 day(s).

<< 27 28 29 30 31 32 33 >>
Time Temp. Humidity Pressure Rain* Wind** Luminosity Snow
1777062124 11.67° C 48% 1019.2 hPa - - - -
1777061218 11.67° C 47% 1019.2 hPa - - - -
1777060313 12.22° C 45% 1019.1 hPa - - - -
1777059407 12.22° C 43% 1019 hPa - - - -
1777058502 12.78° C 45% 1019.1 hPa - - - -
1777057596 12.78° C 44% 1018.9 hPa - - - -
1777056691 13.89° C 43% 1018.6 hPa - - - -
1777055786 14.44° C 42% 1018.5 hPa - - - -
1777054881 15.56° C 41% 1018.3 hPa - - - -
1777053975 16.11° C 38% 1018.2 hPa - - - -
1777053069 17.22° C 35% 1018.1 hPa - - - -
1777052164 17.78° C 34% 1018 hPa - - - -
1777051259 18.89° C 32% 1017.9 hPa - - - -
1777050354 20.56° C 29% 1018 hPa - - - -
1777049448 22.22° C 24% 1017.9 hPa - - - -
1777048543 23.89° C 20% 1018 hPa - - - -
1777047637 24.44° C 16% 1018.1 hPa - - - -
1777046731 25° C 14% 1018.1 hPa - - - -
1777045827 25° C 15% 1018.2 hPa - - - -
1777044921 25° C 15% 1018.3 hPa - - - -
1777043110 25.56° C 14% 1018.4 hPa - - - -
1777042205 25.56° C 15% 1018.5 hPa - - - -
1777041300 25.56° C 15% 1018.6 hPa - - - -
1777040394 26.11° C 14% 1018.7 hPa - - - -
1777039488 26.11° C 15% 1018.9 hPa - - - -

* Rain since midnight (hover to see other rain measurements)
** Current wind speed in m/s (hover to see current wind gust speed)